Tiempo atmosférico en la estación meteorológica de Calamocha, Teruel (890 m.)



Fecha
DESCASC
Temp. máxima en grados centígrados (hora)
DESCASC
Temp. mínima en grados centígrados (hora)
DESCASC
Temp. media en grados centígrados
DESCASC
Racha de viento máxima en m/sg (hora)
DESCASC
Velocidad máxima media en intervalos de 10 minutos(hora)
DESCASC
Precipitaciones diarias en mm
DESCASC
Precipitaciones de 00:00 a 06:00 en mm
DESCASC
Precipitaciones de 06:00 a 12:00 en mm
DESCASC
Precipitaciones de 12:00 a 18:00 en mm
DESCASC
Precipitaciones de 18:00 a 24:00 en mm
DESCASC
16-01-2020 13.8 (13:50) -1.4 (08:50) 6.2 7.22 (14:50) 3.89 (13:50) 0 0 0 0 0
15-01-2020 13.6 (15:00) -4.1 (00:00) 4.8 9.44 (16:00) 5.28 (16:00) 0 0 0 0 0
14-01-2020 11.5 (14:50) -7 (07:20) 2.3 3.61 (18:30) 2.5 (08:00) 0 0 0 0 0
13-01-2020 12 (16:00) -7.9 (08:00) 2 5.83 (16:10) 3.33 (12:40) 0 0 0 0 0
12-01-2020 10.4 (16:00) -8.3 (08:50) 1 3.33 (15:40) 1.67 (23:59) 0 0 0 0 0
11-01-2020 9.8 (15:50) -5.2 (-00:0) 2.3 3.33 (12:00) 1.67 (12:00) 0 0 0 0 0
10-01-2020 7.1 (13:40) 0.3 (00:00) 3.7 9.72 (11:30) 4.72 (11:30) 0.4 0.2 0.2 0 0
09-01-2020 14.6 (16:30) -0.9 (-00:0) 6.9 4.72 (03:10) 3.61 (03:10) 0 0 0 0 0
08-01-2020 13.9 (16:10) -3.2 (-00:0) 5.3 3.89 (09:50) 2.78 (23:59) 0 0 0 0 0
07-01-2020 14.3 (16:20) -5.7 (-00:0) 4.3 3.06 (12:00) 1.94 (12:30) 0 0 0 0 0
06-01-2020 15.4 (16:30) -4.6 (-00:0) 5.4 4.17 (12:50) 2.78 (12:50) 0 0 0 0 0
05-01-2020 13.4 (16:30) -5.4 (-00:0) 4 3.33 (10:30) 1.94 (10:50) 0 0 0 0 0
04-01-2020 7.4 (15:40) -2.2 (-00:0) 2.6 3.61 (10:00) 2.22 (11:00) 0 0 0 0 0
03-01-2020 9.2 (14:10) -4.6 (-00:0) 2.3 4.17 (14:20) 2.22 (05:40) 0 0 0 0 0
02-01-2020 14.5 (16:30) -5.1 (-00:0) 4.7 4.17 (12:00) 2.78 (10:30) 0 0 0 0 0
01-01-2020 14.7 (16:30) -5.5 (-00:0) 4.6 4.17 (12:20) 2.22 (12:20) 0 0 0 0 0
31-12-2019 -- (--) -- (--) -- -- (--) -- (--) -- -- 0 0 0
30-12-2019 -- (--) -- (--) -- -- (--) -- (--) -- 0 0 0 --
29-12-2019 13.2 (16:10) -4.5 (-00:0) 4.3 3.33 (10:20) 2.22 (02:30) 0 0 0 0 0
28-12-2019 14.1 (16:00) -6 (-00:0) 4.1 4.44 (12:40) 2.78 (08:10) 0 0 0 0 0
27-12-2019 11.1 (16:30) -3.3 (-00:0) 3.9 4.72 (08:30) 3.06 (08:30) 0 0 0 0 0
26-12-2019 12.2 (16:30) -0.1 (00:00) 6 5 (13:50) 2.5 (14:10) 0 0 0 0 0
25-12-2019 17 (16:00) -0.3 (00:00) 8.3 3.89 (12:50) 2.5 (12:50) 0 0 0 0 0
24-12-2019 16.4 (15:30) 1.4 (07:50) 8.9 6.11 (15:30) 2.78 (13:30) 0 0 0 0 0
23-12-2019 13.4 (15:10) 3 (00:00) 8.2 7.5 (02:00) 3.61 (00:40) 0 0 0 0 0
22-12-2019 13.5 (14:10) 7.3 (23:59) 10.4 18.33 (14:30) 8.33 (14:20) 1 0 0 0 1
21-12-2019 17.6 (14:20) 9.4 (23:50) 13.5 25.56 (15:30) 14.17 (15:30) 0.2 0 0 0 0.2
20-12-2019 14.2 (01:20) 8.6 (00:00) 11.4 17.5 (08:10) 10.28 (14:30) 10.8 3.2 4 0 3.6

Gráficas

Temp. máximas Temp. mínimas Temp. medias Precipitaciones Rachas de viento máximas Velocidades máximas media en intervalos de 10 minutos

Datos horarios

Fecha y hora oficial Temperatura (ºC) Velocidad del viento (km/h) Dirección del viento Racha (km/h) Dirección de racha Precipitación (mm) Presión (hPa) Tendencia (hPa) Humedad (%)
2020-01-18 23:00:00 3.9 6 Noroeste 41 Noroeste 2.2 917.8 -0.2 91
2020-01-18 22:00:00 6.6 4 Sudoeste 28 Sudeste 0.2 916.7 -1.2 90
2020-01-18 21:00:00 8 8 Sudeste 13 Oeste 0 917.6 -0.6 83
2020-01-18 20:00:00 9.2 6 Oeste 16 Noroeste 0 918 -0.7 71
2020-01-18 19:00:00 9.1 3 Sur 11 Noroeste 0 917.9 -2.1 70
2020-01-18 18:00:00 9.8 5 Oeste 28 Oeste 0 918.2 -2.7 65
2020-01-18 17:00:00 10.6 14 Oeste 28 Oeste 0 918.7 -3.5 63
2020-01-18 16:00:00 10 9 Oeste 22 Sudoeste 0 920 -3.3 65
2020-01-18 15:00:00 9.6 14 Oeste 26 Oeste 0 920.9 -4 66
2020-01-18 14:00:00 9.5 13 Oeste 31 Oeste 0 922.2 -3.3 67
2020-01-18 13:00:00 9.7 8 Sudoeste 17 Sudoeste 0 923.3 -2.5 61
2020-01-18 12:00:00 7.1 7 Sudeste 15 Sudeste 0 924.9 -1.6 70
2020-01-18 11:00:00 3.4 4 Sudoeste 13 Sudeste 0 925.5 -0.8 81
2020-01-18 10:00:00 1.9 10 Sudeste 14 Sudeste 0 925.8 -1 85
2020-01-18 09:00:00 1.1 8 Sudeste 16 Sudeste 0 926.5 -0.6 86
2020-01-18 08:00:00 0 5 Sudeste 7 Sudeste 0 926.3 -0.4 89
2020-01-18 07:00:00 0.5 3 Sur 11 Sudeste 0 926.8 -0.3 86
2020-01-18 06:00:00 -0.5 9 Sudeste 10 Sudeste 0 927.1 -0.3 91
2020-01-18 05:00:00 -0.8 5 Este 15 Sudeste 0 926.7 -1.5 89
2020-01-18 04:00:00 -1.2 11 Sudeste 15 Sudeste 0 927.1 -1.2 90
2020-01-18 03:00:00 -1.7 7 Sudeste 14 Sudeste 0 927.4 -1.1 87
2020-01-18 02:00:00 -1.6 8 Sudeste 11 Sur 0 928.2 -0.3 87
2020-01-18 01:00:00 -1.3 4 Sur 10 Sur 0 928.3 0 86
2020-01-18 00:00:00 -0.6 3 Sudeste 12 Sur 0 928.5 0.1 84
2020-01-17 23:00:00 0.3 5 Sur 12 Sur 0 928.5 0.3 80
2020-01-17 22:00:00 1.5 4 Norte 11 Sudeste 0 928.3 0.7 75
2020-01-17 21:00:00 3.7 4 Norte 13 Nordeste 0 928.4 1.6 69
2020-01-17 20:00:00 5.4 3 Sudoeste 14 Nordeste 0 928.2 1.9 64
2020-01-17 19:00:00 6.2 3 Noroeste 14 Oeste 0 927.6 1.6 62
2020-01-17 18:00:00 8 8 Noroeste 21 Noroeste 0 926.8 1.1 55
2020-01-17 17:00:00 9.2 12 Noroeste 24 Noroeste 0 926.3 0.1 54
2020-01-17 16:00:00 10.3 10 Noroeste 34 Noroeste 0 926 -0.5 56
2020-01-17 15:00:00 9.9 11 Noroeste 24 Noroeste 0 925.7 -0.9 62
2020-01-17 14:00:00 8.1 10 Noroeste 26 Oeste 0 926.2 -0.2 73
2020-01-17 13:00:00 7.9 8 Noroeste 37 Oeste 0 926.5 0.7 76
2020-01-17 12:00:00 8.5 16 Oeste 39 Sudoeste 0 926.6 1.4 64
2020-01-17 11:00:00 7.9 10 Oeste 27 Oeste 0 926.4 1.6 68
2020-01-17 10:00:00 7.2 13 Oeste 24 Oeste 0 925.8 1.6 68
2020-01-17 09:00:00 5.6 5 Sudoeste 22 Oeste 0 925.2 1.2 74
2020-01-17 08:00:00 6 9 Oeste 18 Oeste 0 924.8 1.2 72
2020-01-17 07:00:00 6.3 4 Este 13 Noroeste 0 924.2 1 68
2020-01-17 06:00:00 4.7 3 Norte 8 Noroeste 0 924 0.5 74
2020-01-17 05:00:00 4.5 3 Norte 12 Sudoeste 0 923.6 0.1 73
2020-01-17 04:00:00 5 6 Norte 15 Este 0 923.2 -0.6 72
2020-01-17 03:00:00 5.5 8 Sudeste 17 Sur 0 923.5 -0.5 73
2020-01-17 02:00:00 4.6 5 Sur 10 Este 0 923.5 -0.2 79
2020-01-17 01:00:00 4.2 8 Sudeste 13 Sudeste 0 923.8 -0.1 81
2020-01-17 00:00:00 4.2 7 Sur 16 Sudeste 0 924 0.4 82
2020-01-16 23:00:00 3.1 9 Sudeste 14 Sudeste 0 923.7 0.3 85
2020-01-16 22:00:00 3.3 8 Sudeste 11 Sudeste 0 923.9 1 81
2020-01-16 21:00:00 4.8 0 Calma 9 Sur 0 923.6 1.2 75
2020-01-16 20:00:00 6.3 5 Sur 10 Sudeste 0 923.4 1 74
2020-01-16 19:00:00 7.1 8 Sudeste 12 Sudeste 0 922.9 0.2 66
2020-01-16 18:00:00 11.2 6 Sudoeste 15 Sudoeste 0 922.4 -0.5 58
2020-01-16 17:00:00 12.6 8 Oeste 20 Oeste 0 922.4 -0.9 54
2020-01-16 16:00:00 12.8 10 Oeste 26 Oeste 0 922.7 -1.3 56
2020-01-16 15:00:00 13 9 Sudoeste 26 Sudoeste 0 922.9 -1.9 54
2020-01-16 14:00:00 13.5 13 Sudoeste 24 Sudoeste 0 923.3 -2.2 54
2020-01-16 13:00:00 11.6 3 Sudeste 13 Sudoeste 0 924 -1.4 66
2020-01-16 12:00:00 8.7 8 Sudeste 10 Sudeste 0 924.8 -0.6 75
2020-01-16 11:00:00 4.5 5 Sudoeste 13 Sur 0 925.5 0.2 84
2020-01-16 10:00:00 2 6 Sur 12 Sudeste 0 925.4 0.2 93
2020-01-16 09:00:00 -1.1 9 Sudeste 12 Sudeste 0 925.4 0.6 95
2020-01-16 08:00:00 0 6 Sur 14 Sudeste 0 925.3 0.4 94
2020-01-16 07:00:00 -0.1 9 Sudeste 13 Sudeste 0 925.2 0.2 95
2020-01-16 06:00:00 -0.1 9 Sudeste 13 Sudeste 0 924.8 -0.1 94
2020-01-16 05:00:00 0.3 6 Sudeste 12 Sur 0 924.9 0.2 92
2020-01-16 04:00:00 1.2 11 Sudeste 14 Sudeste 0 925 0 93
2020-01-16 03:00:00 0.7 6 Sudeste 13 Este 0 924.9 -0.1 92
2020-01-16 02:00:00 0.3 7 Sudeste 11 Sudeste 0 924.7 -0.3 93
2020-01-16 01:00:00 1.5 5 Oeste 11 Sur 0 925 0.3 92
2020-01-16 00:00:00 1.9 6 Sur 8 Sudoeste 0 925 0.8 88
2020-01-15 23:00:00 4.4 5 Sudeste 15 Este 0 925 0.5 84
2020-01-15 22:00:00 6 12 Sudeste 18 Este 0 924.7 1.1 81
2020-01-15 21:00:00 6.9 6 Sudeste 18 Sudoeste 0 924.2 1.4 77
2020-01-15 20:00:00 7.4 7 Nordeste 27 Oeste 0 924.5 2.5 77
2020-01-15 19:00:00 8.6 13 Sudoeste 26 Sudoeste 0 923.6 2.1 71
2020-01-15 18:00:00 9.5 7 Oeste 27 Sudoeste 0 922.8 1.5 64
2020-01-15 17:00:00 11.3 7 Oeste 33 Oeste 0 922 0.4 57
2020-01-15 16:00:00 12.6 19 Oeste 34 Oeste 0 921.5 -0.9 53
2020-01-15 15:00:00 13.5 18 Oeste 31 Oeste 0 921.3 -1.4 50
2020-01-15 14:00:00 11.4 8 Sudoeste 18 Norte 0 921.6 -0.8 52
2020-01-15 13:00:00 9.1 5 Oeste 10 Sudoeste 0 922.4 0.8 59
2020-01-15 12:00:00 5.4 2 Sur 8 Oeste 0 922.7 1.7 68
2020-01-15 11:00:00 2.8 4 Sudeste 14 Sur 0 922.4 1.9 74
2020-01-15 10:00:00 1 7 Sur 14 Sur 0 921.6 1.3 80
2020-01-15 09:00:00 -1.5 9 Este 16 Sur 0 921 0.9 87
2020-01-15 08:00:00 -1.3 8 Sur 18 Sur 0 920.5 0.6 85
2020-01-15 07:00:00 -0.9 8 Sudeste 14 Sudeste 0 920.3 0 85
2020-01-15 06:00:00 -1.8 6 Sur 14 Sudeste 0 920.1 -0.2 86
2020-01-15 05:00:00 -2.8 8 Sur 12 Sur 0 919.9 -0.2 88
2020-01-15 04:00:00 -3.3 7 Sudeste 11 Sudoeste 0 920.3 0 86
2020-01-15 03:00:00 -2.3 7 Sur 17 Sur 0 920.3 0.1 87
2020-01-15 02:00:00 -3.5 5 Sur 14 Sudoeste 0 920.1 -0.2 87
2020-01-15 01:00:00 -3.4 6 Sudoeste 14 Sudoeste 0 920.3 0.4 87
2020-01-15 00:00:00 -4.1 4 Sur 7 Sur 0 920.2 0.6 87
2020-01-14 23:00:00 -3.7 0 Calma 8 Sur 0 920.3 1.2 85
2020-01-14 22:00:00 -2.4 4 Este 6 Oeste 0 919.9 1.2 85
2020-01-14 21:00:00 -0.5 3 Sudoeste 5 Oeste 0 919.6 1.5 82
2020-01-14 20:00:00 1.4 3 Norte 7 Norte 0 919.1 1.4 79
2020-01-14 19:00:00 3.9 5 Norte 13 Norte 0 918.7 1.2 70
2020-01-14 18:00:00 6.6 6 Norte 13 Noroeste 0 918.1 0.4 62
2020-01-14 17:00:00 9.6 4 Noroeste 12 Norte 0 917.7 -0.6 52
2020-01-14 16:00:00 11 5 Noroeste 11 Norte 0 917.5 -1.6 39
2020-01-14 15:00:00 11.4 7 Sudeste 10 Sur 0 917.7 -2.3 35
2020-01-14 14:00:00 10 5 Sudoeste 12 Sudoeste 0 918.3 -2.1 35
2020-01-14 13:00:00 7.4 6 Sur 13 Sur 0 919.1 -1.1 46
2020-01-14 12:00:00 4.3 6 Sur 13 Sudoeste 0 920 0 53
2020-01-14 11:00:00 -1.1 2 Este 5 Este 0 920.4 0.3 70
2020-01-14 10:00:00 -4.5 2 Este 5 Norte 0 920.2 0.1 76
2020-01-14 09:00:00 -6.6 3 Sur 8 Sur 0 920 0.2 82
2020-01-14 08:00:00 -6 9 Sudeste 13 Sudeste 0 920.1 0.6 78
2020-01-14 07:00:00 -6.8 0 Calma 9 Sudoeste 0 920.1 0.3 84
2020-01-14 06:00:00 -6.2 3 Sudeste 6 Sur 0 919.8 -0.4 82
2020-01-14 05:00:00 -6.1 3 Sur 7 Sudoeste 0 919.5 -0.9 82
2020-01-14 04:00:00 -6.1 4 Sudeste 6 Sur 0 919.8 -0.9 81
2020-01-14 03:00:00 -5.7 3 Sudeste 7 Sur 0 920.2 -0.3 78
2020-01-14 02:00:00 -5.3 2 Sudoeste 4 Nordeste 0 920.4 0 77
2020-01-14 01:00:00 -4.6 0 Calma 5 Noroeste 0 920.7 0.9 75
2020-01-14 00:00:00 -3.8 3 Sudeste 7 Sudoeste 0 920.5 0.8 70
2020-01-13 23:00:00 -3.3 3 Nordeste 11 Sur 0 920.4 0.7 67
2020-01-13 22:00:00 -1.5 6 Sur 10 Sur 0 919.8 0.2 59
2020-01-13 21:00:00 0.1 2 Noroeste 6 Sur 0 919.7 0.2 52
2020-01-13 20:00:00 3.1 3 Sur 12 Sudoeste 0 919.7 0 39
2020-01-13 19:00:00 6.6 7 Sur 14 Sudeste 0 919.6 -0.2 28
2020-01-13 18:00:00 8 9 Sudeste 13 Sudeste 0 919.5 -0.4 31
2020-01-13 17:00:00 11.1 3 Sudoeste 21 Oeste 0 919.7 -0.7 27
2020-01-13 16:00:00 11.8 6 Oeste 18 Noroeste 0 919.8 -1.6 26
2020-01-13 15:00:00 10 2 Este 6 Norte 0 919.9 -2.7 32
2020-01-13 14:00:00 8.5 3 Sur 13 Sur 0 920.4 -2.7 36
2020-01-13 13:00:00 5.1 10 Sudeste 15 Sudeste 0 921.4 -1.8 45
2020-01-13 12:00:00 2.3 7 Sur 14 Sudeste 0 922.6 -0.4 58
2020-01-13 11:00:00 -0.7 9 Sur 15 Sur 0 923.1 -0.2 61
2020-01-13 10:00:00 -2.8 8 Sudeste 12 Sudeste 0 923.2 -0.4 68
2020-01-13 09:00:00 -6 10 Sudeste 14 Sudeste 0 923 -0.9 78
2020-01-13 08:00:00 -7.8 4 Sur 9 Sudeste 0 923.3 -0.9 82
2020-01-13 07:00:00 -7.6 0 Calma 10 Sudeste 0 923.6 -1.1 83
2020-01-13 06:00:00 -7.5 6 Sudeste 9 Sudeste 0 923.9 -1.3 82
2020-01-13 05:00:00 -7.2 2 Sudoeste 6 Sur 0 924.2 -1.1 80
2020-01-13 04:00:00 -7.2 5 Sur 6 Sur 0 924.7 -1.4 82
2020-01-13 03:00:00 -6.7 0 Calma 9 Sudeste 0 925.2 -1 83
2020-01-13 02:00:00 -6.2 0 Calma 6 Sudoeste 0 925.3 -1.3 80
2020-01-13 01:00:00 -5.8 4 Sudeste 9 Sudeste 0 926.1 -0.5 78
2020-01-13 00:00:00 -5 6 Sudeste 9 Sudeste 0 926.2 -0.3 74
2020-01-12 23:00:00 -4.8 3 Sur 6 Sur 0 926.6 0 73
2020-01-12 22:00:00 -3.9 0 Calma 4 Sur 0 926.6 0.4 69
2020-01-12 21:00:00 -2.8 0 Calma 6 Sur 0 926.5 1.1 67
2020-01-12 20:00:00 -1.2 4 Sur 7 Sudoeste 0 926.6 1.3 59
2020-01-12 19:00:00 1.7 2 Nordeste 9 Oeste 0 926.2 0.9 51
2020-01-12 18:00:00 6.6 0 Calma 6 Noroeste 0 925.4 0 36
2020-01-12 17:00:00 9.4 4 Noroeste 11 Oeste 0 925.3 -0.6 27
2020-01-12 16:00:00 10.3 3 Oeste 12 Noroeste 0 925.3 -1.6 25
2020-01-12 15:00:00 9.6 4 Oeste 10 Sudoeste 0 925.4 -2.6 29
2020-01-12 14:00:00 8.2 4 Sudeste 6 Sur 0 925.9 -2.4 38
2020-01-12 13:00:00 5.9 4 Sudoeste 8 Sudeste 0 926.9 -1.1 47
2020-01-12 12:00:00 2.9 4 Sudoeste 7 Sudeste 0 928 0.3 62
2020-01-12 11:00:00 -0.6 2 Sur 5 Sur 0 928.3 0.7 76
2020-01-12 10:00:00 -4.3 3 Sur 8 Sur 0 928 0.5 85
2020-01-12 09:00:00 -8.1 4 Sur 6 Sur 0 927.7 0.6 88
2020-01-12 08:00:00 -7.9 0 Calma 6 Sur 0 927.6 0.5 88
2020-01-12 07:00:00 -7.5 3 Sur 6 Sur 0 927.5 0.2 88
2020-01-12 06:00:00 -7.5 0 Calma 4 Sur 0 927.1 -0.3 86
2020-01-12 05:00:00 -6.8 3 Sur 4 Sur 0 927.1 -0.2 86
2020-01-12 04:00:00 -6.2 0 Calma 7 Sudoeste 0 927.3 -0.2 86
2020-01-12 03:00:00 -5.8 3 Sur 7 Sudeste 0 927.4 -0.4 86
2020-01-12 02:00:00 -5.6 4 Sudoeste 7 Sur 0 927.3 -0.4 85
2020-01-12 01:00:00 -5.3 4 Sur 5 Sur 0 927.5 0 86
2020-01-12 00:00:00 -4.9 0 Calma 4 Sudoeste 0 927.8 0.5 84
2020-01-11 23:00:00 -4.1 0 Calma 6 Sudeste 0 927.7 0.6 86
2020-01-11 22:00:00 -3.2 3 Sudeste 5 Sudeste 0 927.5 1 80
2020-01-11 21:00:00 -1.6 2 Sur 6 Sur 0 927.3 1.3 75
2020-01-11 20:00:00 0.4 3 Sur 5 Sur 0 927.1 1.1 71
2020-01-11 19:00:00 2.8 0 Calma 5 Noroeste 0 926.5 0.5 65
2020-01-11 18:00:00 7 3 Oeste 6 Sudoeste 0 926 -0.3 50
2020-01-11 17:00:00 9 2 Sudeste 9 Este 0 926 -0.9 41
2020-01-11 16:00:00 9.5 6 Sudeste 9 Sudeste 0 926 -2 45
2020-01-11 15:00:00 8.8 5 Sudeste 9 Sudoeste 0 926.3 -2.6 48
2020-01-11 14:00:00 8.3 5 Sudoeste 8 Sudoeste 0 926.9 -2.3 54
2020-01-11 13:00:00 6.2 3 Sudeste 11 Sur 0 928 -0.8 62
2020-01-11 12:00:00 4.4 6 Sudeste 12 Sudeste 0 928.9 0.5 73
2020-01-11 11:00:00 1 3 Sur 8 Sudoeste 0 929.2 1.1 88
2020-01-11 10:00:00 -2.6 3 Sudeste 5 Sudeste 0 928.8 1.1 94
2020-01-11 09:00:00 -5 0 Calma 4 Norte 0 928.4 0.8 94
2020-01-11 08:00:00 -4.8 0 Calma 3 Oeste 0 928.1 0.6 92
2020-01-11 07:00:00 -4.2 2 Sur 5 Sur 0 927.7 0.1 92
2020-01-11 06:00:00 -3.8 3 Sur 6 Sur 0 927.6 0.1 91
2020-01-11 05:00:00 -2.9 0 Calma 4 Sudoeste 0 927.5 0.2 91
2020-01-11 04:00:00 -2 3 Sur 8 Sur 0 927.6 0.4 91
2020-01-11 03:00:00 -1.1 4 Sudeste 6 Sur 0 927.5 0.1 90
2020-01-11 02:00:00 0.6 2 Este 6 Oeste 0 927.3 0.5 88
2020-01-11 01:00:00 2.3 3 Noroeste 6 Noroeste 0 927.2 0.2 85
2020-01-11 00:00:00 1.8 4 Sudoeste 12 Norte 0 927.4 0.9 87
2020-01-10 23:00:00 2.1 5 Este 8 Noroeste 0 926.8 0.6 84
2020-01-10 22:00:00 4 4 Noroeste 14 Norte 0 927 1.2 78
2020-01-10 21:00:00 4.5 5 Noroeste 29 Norte 0 926.5 1.2 76
2020-01-10 20:00:00 5 10 Norte 28 Nordeste 0 926.2 1.6 75
2020-01-10 19:00:00 5.6 15 Norte 31 Norte 0 925.8 1.3 72
2020-01-10 18:00:00 5.8 12 Norte 28 Nordeste 0 925.3 1.2 72
2020-01-10 17:00:00 6.3 10 Norte 29 Norte 0 924.6 0.5 68
2020-01-10 16:00:00 6.7 13 Norte 34 Norte 0 924.5 0.1 65
2020-01-10 15:00:00 6.6 15 Norte 33 Norte 0 924.1 -0.8 66
2020-01-10 14:00:00 7 12 Norte 34 Norte 0 924.1 -0.7 64
2020-01-10 13:00:00 6.4 14 Norte 34 Norte 0 924.4 -0.2 66
2020-01-10 12:00:00 6 11 Norte 35 Norte 0 924.9 1 67
2020-01-10 11:00:00 4.2 9 Norte 23 Norte 0 924.8 1.1 84
2020-01-10 10:00:00 1.3 5 Sudeste 11 Norte 0 924.6 1.5 95
2020-01-10 09:00:00 0.6 5 Sudeste 9 Sudeste 0 923.9 1.1 95
2020-01-10 08:00:00 1.8 3 Noroeste 8 Nordeste 0 923.7 0.9 93
2020-01-10 07:00:00 3.4 5 Norte 20 Norte 0.2 923.1 0.5 91
2020-01-10 06:00:00 3.9 9 Norte 26 Norte 0.2 922.8 0.8 89
2020-01-10 05:00:00 4.7 7 Norte 20 Nordeste 0 922.8 1.2 86
2020-01-10 04:00:00 4.6 8 Norte 32 Nordeste 0 922.6 0.8 89
2020-01-10 03:00:00 3.6 7 Este 14 Nordeste 0 922 0 93
2020-01-10 02:00:00 3.3 5 Sur 10 Sudeste 0 921.6 -0.2 85
2020-01-10 01:00:00 3.4 4 Sudeste 9 Sudeste 0 921.8 -0.2 86
2020-01-10 00:00:00 4.2 3 Este 8 Sudeste 0 922 -0.4 84
2020-01-09 23:00:00 3.5 2 Este 8 Sudeste 0 921.8 0 84
2020-01-09 22:00:00 4.6 3 Nordeste 9 Sudeste 0 922 0.4 84
2020-01-09 21:00:00 4.1 5 Sur 11 Sudeste 0 922.4 1 86
2020-01-09 20:00:00 4.2 4 Nordeste 11 Sudeste 0 921.8 0.8 82
2020-01-09 19:00:00 7.5 3 Sur 8 Sudeste 0 921.6 0.9 70
2020-01-09 18:00:00 10.9 2 Noroeste 15 Noroeste 0 921.4 0 61
2020-01-09 17:00:00 14 6 Oeste 11 Oeste 0 921 -1.5 45
2020-01-09 16:00:00 14.5 6 Sur 14 Sur 0 920.7 -2.8 44
2020-01-09 15:00:00 13.1 8 Sur 14 Sur 0 921.4 -3.2 48
2020-01-09 14:00:00 10.5 8 Sudeste 11 Sudeste 0 922.5 -2.5 65
2020-01-09 13:00:00 6.9 8 Sur 14 Sudeste 0 923.5 -1.5 85
2020-01-09 12:00:00 2.2 9 Sudeste 15 Sudeste 0 924.6 -0.2 100
2020-01-09 11:00:00 0.1 8 Sudeste 14 Sudeste 0 925 0.4 100
2020-01-09 10:00:00 -0.9 10 Sudeste 14 Sur 0 925 0.1 99
2020-01-09 09:00:00 -0.9 6 Sudeste 13 Sudeste 0 924.8 -0.4 99
2020-01-09 08:00:00 -0.7 8 Sur 14 Sur 0 924.6 -0.9 99
2020-01-09 07:00:00 -0.6 8 Sudeste 14 Sudeste 0 924.9 -1 99
2020-01-09 06:00:00 -0.8 5 Sur 17 Sudeste 0 925.2 -0.8 98
2020-01-09 05:00:00 -0.1 12 Sudeste 17 Sur 0 925.5 -0.6 98
2020-01-09 04:00:00 -0.1 8 Sudeste 17 Sudeste 0 925.9 -0.4 97
2020-01-09 03:00:00 0.5 13 Sudeste 17 Sudeste 0 926 -0.5 96
2020-01-09 02:00:00 1.2 9 Sudeste 13 Sudeste 0 926.1 -0.5 95
2020-01-09 01:00:00 1.5 9 Sudeste 13 Sudeste 0 926.3 -0.5 93
2020-01-09 00:00:00 1.5 10 Sudeste 12 Sudeste 0 926.5 -0.3 94
2020-01-08 23:00:00 0.4 3 Sudeste 6 Sudeste 0 926.6 0.1 88
2020-01-08 22:00:00 1.1 0 Calma 6 Sudeste 0 926.8 0.3 86
2020-01-08 21:00:00 2.4 5 Sur 10 Sudoeste 0 926.8 0.7 83
2020-01-08 20:00:00 4.3 2 Oeste 10 Sudeste 0 926.5 0.8 77
2020-01-08 19:00:00 7.2 4 Oeste 8 Norte 0 926.5 1 71
2020-01-08 18:00:00 10.4 3 Norte 5 Nordeste 0 926.1 0.2 60
2020-01-08 17:00:00 12.9 3 Noroeste 8 Oeste 0 925.7 -0.7 54
2020-01-08 16:00:00 13.7 3 Noroeste 10 Noroeste 0 925.5 -1.6 49
2020-01-08 15:00:00 12.6 4 Noroeste 10 Norte 0 925.9 -2 51
2020-01-08 14:00:00 11.8 4 Noroeste 9 Norte 0 926.4 -1.9 48
2020-01-08 13:00:00 10.2 3 Sudoeste 9 Sudoeste 0 927.1 -1 42
2020-01-08 12:00:00 6.9 4 Sudoeste 9 Sudoeste 0 927.9 0.5 56
2020-01-08 11:00:00 2.6 2 Noroeste 9 Sudeste 0 928.3 1.3 77
2020-01-08 10:00:00 0.1 7 Sur 14 Sur 0 928.1 1.3 79
2020-01-08 09:00:00 -3 3 Sudeste 5 Sudeste 0 927.4 0.8 89
2020-01-08 08:00:00 -3 0 Calma 4 Nordeste 0 927 0.2 88
2020-01-08 07:00:00 -2.8 0 Calma 5 Este 0 926.8 -0.2 88
2020-01-08 06:00:00 -2.7 0 Calma 7 Sudeste 0 926.6 -0.6 88
2020-01-08 05:00:00 -3 3 Sudeste 4 Sudeste 0 926.8 -0.3 88
2020-01-08 04:00:00 -3 0 Calma 3 Noroeste 0 927 -0.4 87
2020-01-08 03:00:00 -2.9 0 Calma 5 Oeste 0 927.2 -0.4 86
2020-01-08 02:00:00 -2.8 0 Calma 4 Sudeste 0 927.1 -0.6 86
2020-01-08 01:00:00 -2.3 3 Este 5 Sudeste 0 927.4 -0.4 83
2020-01-08 00:00:00 -1.7 3 Sudeste 5 Sur 0 927.6 0.1 80
2020-01-07 23:00:00 -1.2 2 Sudoeste 5 Sur 0 927.7 0.4 79
2020-01-07 22:00:00 -0.4 0 Calma 4 Sudeste 0 927.8 0.7 77
2020-01-07 21:00:00 0.4 3 Oeste 6 Sur 0 927.5 0.8 73
2020-01-07 20:00:00 2.8 0 Calma 8 Sur 0 927.3 0.9 65
2020-01-07 19:00:00 5.8 2 Oeste 5 Noroeste 0 927.1 0.8 55
2020-01-07 18:00:00 9.4 2 Noroeste 9 Noroeste 0 926.7 0.1 46
2020-01-07 17:00:00 12.9 2 Oeste 4 Oeste 0 926.4 -1 36
2020-01-07 16:00:00 14 2 Sudoeste 6 Este 0 926.3 -1.9 34
2020-01-07 15:00:00 12.4 2 Este 8 Noroeste 0 926.6 -2.5 35
2020-01-07 14:00:00 11 3 Este 8 Sudeste 0 927.4 -2.2 37
2020-01-07 13:00:00 8.7 4 Sudoeste 10 Sur 0 928.2 -1.4 46
2020-01-07 12:00:00 6 6 Sur 11 Sur 0 929.1 0.2 60
2020-01-07 11:00:00 0.8 0 Calma 4 Oeste 0 929.6 1.1 78
2020-01-07 10:00:00 -2.7 2 Oeste 6 Sur 0 929.6 1.4 85
2020-01-07 09:00:00 -5.3 3 Sudeste 4 Sur 0 928.9 0.7 91
2020-01-07 08:00:00 -5.4 0 Calma 5 Sudeste 0 928.5 0.3 89
2020-01-07 07:00:00 -5.2 0 Calma 3 Sudoeste 0 928.2 -0.1 91
2020-01-07 06:00:00 -4.9 3 Oeste 5 Sur 0 928.2 -0.2 90
2020-01-07 05:00:00 -4.8 2 Nordeste 4 Nordeste 0 928.2 0.1 90
2020-01-07 04:00:00 -4.3 0 Calma 5 Sur 0 928.3 0.2 88
2020-01-07 03:00:00 -4.1 3 Sur 5 Sur 0 928.4 0.3 87
2020-01-07 02:00:00 -3.5 0 Calma 4 Sur 0 928.1 0.1 87
2020-01-07 01:00:00 -3 2 Oeste 4 Sudoeste 0 928.1 0.4 85
2020-01-07 00:00:00 -2.4 0 Calma 3 Sur 0 928.1 0.9 84
2020-01-06 23:00:00 -1.6 2 Sur 4 Este 0 928 1.4 81
2020-01-06 22:00:00 -0.6 3 Sudoeste 6 Sur 0 927.7 2 78
2020-01-06 21:00:00 1 3 Sudoeste 5 Sur 0 927.2 2.1 75
2020-01-06 20:00:00 3.3 0 Calma 8 Sur 0 926.6 1.8 69
2020-01-06 19:00:00 5.8 3 Sudeste 5 Sudoeste 0 925.7 1 60
2020-01-06 18:00:00 10.6 0 Calma 5 Norte 0 925.1 0.6 46
2020-01-06 17:00:00 13.8 2 Noroeste 6 Sudoeste 0 924.8 0 36
2020-01-06 16:00:00 14.9 3 Noroeste 6 Sur 0 924.7 -1 33
2020-01-06 15:00:00 14.3 4 Sur 10 Sudoeste 0 924.5 -2.1 35
2020-01-06 14:00:00 11.9 6 Sudoeste 15 Sur 0 924.8 -2 39
2020-01-06 13:00:00 9.2 8 Sur 15 Sur 0 925.7 -1.1 53
2020-01-06 12:00:00 6.6 7 Sudeste 12 Sur 0 926.6 0.1 60
2020-01-06 11:00:00 1.9 2 Sur 4 Sudeste 0 926.8 1 80
2020-01-06 10:00:00 -1.4 2 Noroeste 11 Sudeste 0 926.8 1.1 88